Accueil
METAR-TAF:

METAR-TAF

Aéroports :

Groton / New London, Connecticut, États-Unis

latitude: 41-19-39N, longitude: 072-02-58W, altitude: 3 m

Observation

Le bulletin a été fait il y a 34 minutes, à 01:56 UTC
Vent 4 kt de nord
Température -4°C
Humidité 80%
Pression 1021 hPa
Visibilité: 16.1 km
Ciel clair

METAR: KGON 110156Z 01004KT 10SM CLR M04/M07 A3016 RMK AO2 SLP213 T10391067

Heure: 21:30 (02:30 UTC)

Prévision

Le bulletin a été fait il y a 2 heures et 50 minutes, à 23:40 UTC
Prévision valable du 11 à 00 UTC au 11 à 24 UTC
Vent 5 kt de direction variable
Visibilité: 10 km
Ciel clair
A partir de 11 à 1600 UTC
Vent 3 kt de direction variable
Visibilité: 10 km
Quelques nuages à une hauteur de 3000 ft

TAF: KGON 102340Z 1100/1124 VRB05KT P6SM SKC FM111600 VRB03KT P6SM FEW030

Observations et prévisions météorologiques de plus de 4000 aéroports (messages METAR et TAF).

Les stations disponibles sont représentées par des disques jaunes et rouges sur la carte.

Passer la souris dessus pour voir le nom de la station.

Cliquer dessus pour voir les observations et prévisions météorologiques.

Pour changer de carte: cliquez sur les boutons verts avec une croix noire pour zoomer, sur le bouton vert avec un tiret pour effectuer un zoom arrière, ou sur les flèches vertes pour les cartes adjacentes.


METAR-TAF: